createdAt,value
2019-03-18T00:01:44.903Z,100431.84
2019-03-18T00:04:18.099Z,100428.98
2019-03-18T00:06:48.743Z,100434.30
2019-03-18T00:09:19.066Z,100437.73
2019-03-18T00:11:49.610Z,100439.66
2019-03-18T00:14:20.771Z,100432.41
2019-03-18T00:16:51.861Z,100428.92
2019-03-18T00:19:22.891Z,100434.38
2019-03-18T00:21:53.162Z,100439.39
2019-03-18T00:24:23.146Z,100427.94
2019-03-18T00:26:53.701Z,100427.20
2019-03-18T00:29:23.833Z,100425.34
2019-03-18T00:31:57.498Z,100433.91
2019-03-18T00:34:27.818Z,100444.36
2019-03-18T00:36:58.145Z,100451.78
2019-03-18T00:39:35.100Z,100442.31
2019-03-18T00:42:09.632Z,100446.98
2019-03-18T00:44:40.002Z,100452.97
2019-03-18T00:47:10.605Z,100455.52
2019-03-18T00:49:40.946Z,100465.02
2019-03-18T00:52:14.426Z,100458.05
2019-03-18T00:54:45.313Z,100463.25
2019-03-18T00:57:15.661Z,100474.63
2019-03-18T00:59:46.754Z,100469.73
2019-03-18T01:02:18.093Z,100478.05
2019-03-18T01:04:49.513Z,100481.13
2019-03-18T01:07:19.777Z,100477.61
2019-03-18T01:09:49.786Z,100474.91
2019-03-18T01:12:20.445Z,100491.30
2019-03-18T01:14:50.840Z,100485.05
2019-03-18T01:17:20.823Z,100486.67
2019-03-18T01:19:51.283Z,100475.64
2019-03-18T01:22:25.168Z,100481.13
2019-03-18T01:24:55.843Z,100471.14
2019-03-18T01:27:25.977Z,100468.98
2019-03-18T01:29:57.037Z,100468.80
2019-03-18T01:32:27.279Z,100463.17
2019-03-18T01:34:57.942Z,100464.33
2019-03-18T01:37:29.434Z,100455.06
2019-03-18T01:40:02.752Z,100461.42
2019-03-18T01:42:34.549Z,100463.16
2019-03-18T01:45:07.673Z,100466.48
2019-03-18T01:47:38.586Z,100470.92
2019-03-18T01:50:09.113Z,100478.04
2019-03-18T01:52:39.067Z,100477.71
2019-03-18T01:55:09.920Z,100472.63
2019-03-18T01:57:40.085Z,100478.27
2019-03-18T02:00:10.832Z,100476.52
2019-03-18T02:02:41.748Z,100477.77
2019-03-18T02:05:12.239Z,100483.50
2019-03-18T02:07:42.215Z,100475.13
2019-03-18T02:10:12.379Z,100476.41
2019-03-18T02:12:43.474Z,100477.10
2019-03-18T02:15:13.339Z,100478.09
2019-03-18T02:17:43.496Z,100479.52
2019-03-18T02:20:14.744Z,100477.59
2019-03-18T02:22:44.840Z,100475.93
2019-03-18T02:25:15.208Z,100479.23
2019-03-18T02:27:45.376Z,100475.20
2019-03-18T02:30:15.840Z,100488.47
2019-03-18T02:32:45.680Z,100484.98
2019-03-18T02:35:16.380Z,100482.95
2019-03-18T02:37:47.783Z,100497.16
2019-03-18T02:40:18.203Z,100498.98
2019-03-18T02:42:49.144Z,100494.23
2019-03-18T02:45:19.629Z,100486.92
2019-03-18T02:47:49.733Z,100481.77
2019-03-18T02:50:19.518Z,100484.81
2019-03-18T02:52:50.560Z,100477.93
2019-03-18T02:55:20.699Z,100484.72
2019-03-18T02:57:50.992Z,100491.91
2019-03-18T03:00:21.277Z,100499.91
2019-03-18T03:02:52.967Z,100501.53
2019-03-18T03:05:23.902Z,100498.67
2019-03-18T03:07:54.674Z,100502.69
2019-03-18T03:10:24.958Z,100500.98
2019-03-18T03:12:55.953Z,100502.14
2019-03-18T03:15:30.047Z,100495.25
2019-03-18T03:18:05.244Z,100500.19
2019-03-18T03:20:35.827Z,100502.66
2019-03-18T03:23:07.518Z,100503.46
2019-03-18T03:25:37.465Z,100509.98
2019-03-18T03:28:07.467Z,100511.88
2019-03-18T03:30:37.749Z,100512.92
2019-03-18T03:33:07.616Z,100506.30
2019-03-18T03:35:37.458Z,100506.62
2019-03-18T03:38:07.612Z,100514.75
2019-03-18T03:40:37.883Z,100511.60
2019-03-18T03:43:08.504Z,100512.48
2019-03-18T03:45:39.012Z,100516.69
2019-03-18T03:48:09.401Z,100521.23
2019-03-18T03:50:39.552Z,100513.74
2019-03-18T03:53:09.197Z,100517.02
2019-03-18T03:55:39.860Z,100520.50
2019-03-18T03:58:09.717Z,100524.57
2019-03-18T04:00:39.951Z,100520.47
2019-03-18T04:03:10.477Z,100517.98
2019-03-18T04:05:40.784Z,100525.27
2019-03-18T04:08:10.647Z,100528.19
2019-03-18T04:10:40.595Z,100535.43
2019-03-18T04:13:11.941Z,100533.73
2019-03-18T04:15:41.990Z,100544.28
2019-03-18T04:18:11.929Z,100535.69
2019-03-18T04:20:42.129Z,100556.74
2019-03-18T04:23:11.849Z,100549.03
2019-03-18T04:25:42.039Z,100553.61
2019-03-18T04:28:12.359Z,100550.11
2019-03-18T04:30:42.112Z,100551.99
2019-03-18T04:33:12.110Z,100553.86
2019-03-18T04:35:42.712Z,100567.94
2019-03-18T04:38:12.985Z,100559.31
2019-03-18T04:40:43.196Z,100565.43
2019-03-18T04:43:13.153Z,100565.02
2019-03-18T04:45:42.745Z,100575.17
2019-03-18T04:48:12.723Z,100578.94
2019-03-18T04:50:43.714Z,100581.50
2019-03-18T04:53:15.508Z,100577.58
2019-03-18T04:55:45.888Z,100575.31
2019-03-18T04:58:15.631Z,100575.80
2019-03-18T05:00:45.697Z,100571.24
2019-03-18T05:03:16.923Z,100567.62
2019-03-18T05:05:47.938Z,100567.27
2019-03-18T05:08:18.035Z,100564.97
2019-03-18T05:10:48.639Z,100570.22
2019-03-18T05:13:19.054Z,100566.63
2019-03-18T05:15:49.034Z,100575.86
2019-03-18T05:18:19.092Z,100578.04
2019-03-18T05:20:49.850Z,100583.91
2019-03-18T05:23:20.229Z,100587.28
2019-03-18T05:25:50.418Z,100597.28
2019-03-18T05:28:20.495Z,100597.74
2019-03-18T05:30:50.492Z,100600.34
2019-03-18T05:33:20.306Z,100602.23
2019-03-18T05:35:50.590Z,100608.00
2019-03-18T05:38:20.676Z,100605.38
2019-03-18T05:40:50.935Z,100605.43
2019-03-18T05:43:20.861Z,100608.83
2019-03-18T05:45:50.978Z,100618.06
2019-03-18T05:48:20.993Z,100617.41
2019-03-18T05:50:50.935Z,100628.78
2019-03-18T05:53:21.592Z,100628.13
2019-03-18T05:55:51.698Z,100628.73
2019-03-18T05:58:21.835Z,100628.78
2019-03-18T06:00:52.743Z,100631.98
2019-03-18T06:03:22.890Z,100639.41
2019-03-18T06:05:55.590Z,100648.45
2019-03-18T06:08:26.717Z,100655.46
2019-03-18T06:10:56.715Z,100652.73
2019-03-18T06:13:26.668Z,100654.95
2019-03-18T06:15:56.723Z,100663.47
2019-03-18T06:18:27.115Z,100666.02
2019-03-18T06:20:57.179Z,100669.00
2019-03-18T06:23:28.100Z,100675.13
2019-03-18T06:25:58.677Z,100671.65
2019-03-18T06:28:29.231Z,100677.41
2019-03-18T06:30:59.169Z,100681.80
2019-03-18T06:33:29.337Z,100687.21
2019-03-18T06:35:59.394Z,100698.97
2019-03-18T06:38:29.368Z,100691.68
2019-03-18T06:41:00.032Z,100700.65
2019-03-18T06:43:30.344Z,100698.20
2019-03-18T06:46:00.438Z,100701.65
2019-03-18T06:48:31.033Z,100703.44
2019-03-18T06:51:01.983Z,100701.63
2019-03-18T06:53:32.020Z,100700.71
2019-03-18T06:56:05.142Z,100704.60
2019-03-18T06:58:35.599Z,100701.80
2019-03-18T07:01:06.069Z,100704.77
2019-03-18T07:03:36.241Z,100704.30
2019-03-18T07:06:09.618Z,100705.75
2019-03-18T07:08:39.531Z,100703.69
2019-03-18T07:11:10.132Z,100712.16
2019-03-18T07:13:40.110Z,100711.66
2019-03-18T07:16:11.291Z,100717.56
2019-03-18T07:18:41.851Z,100722.52
2019-03-18T07:21:22.018Z,100734.88
2019-03-18T07:23:52.699Z,100738.61
2019-03-18T07:26:22.849Z,100747.39
2019-03-18T07:28:52.751Z,100752.50
2019-03-18T07:31:25.151Z,100749.51
2019-03-18T07:33:54.786Z,100755.41
2019-03-18T07:36:24.374Z,100752.31
2019-03-18T07:38:54.458Z,100752.67
2019-03-18T07:41:24.469Z,100752.69
2019-03-18T07:43:57.376Z,100750.78
2019-03-18T07:46:27.114Z,100759.82
2019-03-18T07:48:56.744Z,100770.97
2019-03-18T07:51:26.288Z,100771.71
2019-03-18T07:53:56.885Z,100757.59
2019-03-18T07:56:26.417Z,100764.44
2019-03-18T07:58:56.115Z,100759.39
2019-03-18T08:01:26.369Z,100781.55
2019-03-18T08:03:56.125Z,100776.78
2019-03-18T08:06:26.191Z,100775.07
2019-03-18T08:08:56.445Z,100792.98
2019-03-18T08:11:25.982Z,100791.68
2019-03-18T08:13:55.961Z,100799.84
2019-03-18T08:16:26.183Z,100798.60
2019-03-18T08:18:55.820Z,100806.92
2019-03-18T08:21:25.562Z,100812.01
2019-03-18T08:23:56.445Z,100815.30
2019-03-18T08:26:27.303Z,100816.85
2019-03-18T08:28:57.198Z,100814.72
2019-03-18T08:31:26.819Z,100818.58
2019-03-18T08:33:56.582Z,100812.86
2019-03-18T08:36:26.796Z,100809.61
2019-03-18T08:38:56.606Z,100810.72
2019-03-18T08:41:26.408Z,100812.89
2019-03-18T08:43:57.059Z,100809.70
2019-03-18T08:46:26.821Z,100806.16
2019-03-18T08:48:57.039Z,100802.92
2019-03-18T08:51:27.381Z,100807.58
2019-03-18T08:53:57.465Z,100803.86
2019-03-18T08:56:29.648Z,100812.06
2019-03-18T08:58:59.781Z,100815.84
2019-03-18T09:01:32.044Z,100813.94
2019-03-18T09:04:01.234Z,100809.58
2019-03-18T09:06:32.408Z,100815.48
2019-03-18T09:09:04.490Z,100825.47
2019-03-18T09:11:34.282Z,100828.47
2019-03-18T09:14:09.720Z,100834.64
2019-03-18T09:16:40.341Z,100827.50
2019-03-18T09:19:11.210Z,100837.64
2019-03-18T09:21:42.361Z,100829.16
2019-03-18T09:24:12.981Z,100838.39
2019-03-18T09:26:42.512Z,100849.19
2019-03-18T09:29:18.098Z,100850.11
2019-03-18T09:31:47.680Z,100847.53
2019-03-18T09:34:17.362Z,100857.48
2019-03-18T09:36:47.471Z,100853.80
2019-03-18T09:39:17.746Z,100861.79
2019-03-18T09:41:47.768Z,100862.08
2019-03-18T09:44:17.642Z,100860.77
2019-03-18T09:46:47.241Z,100861.55
2019-03-18T09:49:21.902Z,100858.48
2019-03-18T09:51:49.096Z,100859.67
2019-03-18T09:54:19.319Z,100864.09
2019-03-18T09:56:49.712Z,100868.45
2019-03-18T09:59:19.787Z,100869.27
2019-03-18T10:01:49.505Z,100870.02
2019-03-18T10:04:19.458Z,100869.06
2019-03-18T10:06:49.420Z,100869.05
2019-03-18T10:09:20.982Z,100871.33
2019-03-18T10:11:50.983Z,100874.94
2019-03-18T10:14:20.633Z,100875.81
2019-03-18T10:16:50.984Z,100880.16
2019-03-18T10:19:32.763Z,100879.22
2019-03-18T10:21:54.600Z,100883.77
2019-03-18T10:24:25.109Z,100879.91
2019-03-18T10:26:55.640Z,100885.41
2019-03-18T10:29:25.497Z,100883.57
2019-03-18T10:31:55.558Z,100889.85
2019-03-18T10:34:25.484Z,100893.51
2019-03-18T10:36:56.336Z,100891.48
2019-03-18T10:39:26.940Z,100896.89
2019-03-18T10:41:57.014Z,100895.62
2019-03-18T10:44:26.916Z,100901.72
2019-03-18T10:46:58.220Z,100902.55
2019-03-18T10:49:28.062Z,100898.95
2019-03-18T10:51:57.941Z,100897.64
2019-03-18T10:54:31.216Z,100909.23
2019-03-18T10:56:59.732Z,100895.62
2019-03-18T10:59:29.458Z,100907.08
2019-03-18T11:01:58.980Z,100896.30
2019-03-18T11:04:29.281Z,100898.64
2019-03-18T11:06:59.378Z,100899.76
2019-03-18T11:09:29.063Z,100889.88
2019-03-18T11:11:58.800Z,100889.61
2019-03-18T11:14:28.896Z,100903.98
2019-03-18T11:16:58.987Z,100897.95
2019-03-18T11:19:28.818Z,100900.88
2019-03-18T11:22:04.208Z,100899.62
2019-03-18T11:24:35.329Z,100908.53
2019-03-18T11:27:06.494Z,100900.19
2019-03-18T11:29:42.509Z,100893.12
2019-03-18T11:32:15.409Z,100895.18
2019-03-18T11:34:46.076Z,100893.30
2019-03-18T11:37:16.523Z,100899.13
2019-03-18T11:39:46.348Z,100882.20
2019-03-18T11:42:16.411Z,100879.61
2019-03-18T11:44:50.147Z,100879.78
2019-03-18T11:47:20.288Z,100871.77
2019-03-18T11:49:50.007Z,100872.64
2019-03-18T11:52:20.034Z,100866.75
2019-03-18T11:54:49.792Z,100863.04
2019-03-18T11:57:19.396Z,100858.12
2019-03-18T11:59:51.023Z,100856.38
2019-03-18T12:02:27.871Z,100864.29
2019-03-18T12:04:58.753Z,100858.89
2019-03-18T12:07:29.969Z,100855.48
2019-03-18T12:10:02.604Z,100852.45
2019-03-18T12:12:32.244Z,100850.60
2019-03-18T12:15:05.976Z,100854.19
2019-03-18T12:17:35.728Z,100848.59
2019-03-18T12:20:09.594Z,100851.59
2019-03-18T12:22:39.677Z,100852.20
2019-03-18T12:25:10.969Z,100863.05
2019-03-18T12:27:40.730Z,100852.97
2019-03-18T12:30:19.743Z,100852.01
2019-03-18T12:32:50.164Z,100848.24
2019-03-18T12:35:20.452Z,100842.77
2019-03-18T12:37:50.321Z,100834.44
2019-03-18T12:40:23.073Z,100831.00
2019-03-18T12:42:52.822Z,100830.84
2019-03-18T12:45:22.858Z,100830.63
2019-03-18T12:47:53.122Z,100825.56
2019-03-18T12:50:38.570Z,100821.46
2019-03-18T12:52:55.228Z,100820.58
2019-03-18T12:55:25.190Z,100821.61
2019-03-18T12:57:55.588Z,100817.17
2019-03-18T13:00:25.755Z,100809.02
2019-03-18T13:02:55.603Z,100806.97
2019-03-18T13:05:26.888Z,100811.13
2019-03-18T13:07:56.927Z,100796.54
2019-03-18T13:10:27.034Z,100808.97
2019-03-18T13:13:03.581Z,100798.06
2019-03-18T13:15:33.814Z,100796.91
2019-03-18T13:18:06.835Z,100801.52
2019-03-18T13:20:39.658Z,100796.31
2019-03-18T13:23:09.664Z,100800.35
2019-03-18T13:25:40.109Z,100800.98
2019-03-18T13:28:13.861Z,100796.59
2019-03-18T13:31:04.175Z,100806.79
2019-03-18T13:33:45.036Z,100791.53
2019-03-18T13:36:17.379Z,100794.82
2019-03-18T13:38:47.729Z,100791.00
2019-03-18T13:41:17.492Z,100792.52
2019-03-18T13:44:00.667Z,100800.73
2019-03-18T13:46:30.960Z,100800.33
2019-03-18T13:49:00.716Z,100797.56
2019-03-18T13:51:30.739Z,100790.27
2019-03-18T13:54:00.506Z,100803.41
2019-03-18T13:56:30.524Z,100811.88
2019-03-18T13:59:04.897Z,100818.09
2019-03-18T14:01:31.941Z,100829.06
2019-03-18T14:04:02.472Z,100853.73
2019-03-18T14:06:32.647Z,100867.39
2019-03-18T14:09:02.901Z,100879.08
2019-03-18T14:11:32.838Z,100880.58
2019-03-18T14:14:03.446Z,100881.61
2019-03-18T14:16:33.747Z,100882.66
2019-03-18T14:19:06.706Z,100891.68
2019-03-18T14:21:36.701Z,100892.08
2019-03-18T14:24:09.645Z,100900.58
2019-03-18T14:26:39.754Z,100926.23
2019-03-18T14:29:10.549Z,100903.31
2019-03-18T14:31:43.908Z,100901.86
2019-03-18T14:34:15.519Z,100903.97
2019-03-18T14:36:45.578Z,100893.60
2019-03-18T14:39:17.891Z,100894.20
2019-03-18T14:41:48.223Z,100893.09
2019-03-18T14:44:17.921Z,100892.18
2019-03-18T14:46:48.283Z,100882.05
2019-03-18T14:49:20.079Z,100874.07
2019-03-18T14:51:54.946Z,100870.02
2019-03-18T14:54:29.813Z,100858.13
2019-03-18T14:56:59.871Z,100859.70
2019-03-18T14:59:31.001Z,100848.88
2019-03-18T15:02:10.762Z,100849.96
2019-03-18T15:04:40.248Z,100852.30
2019-03-18T15:07:12.593Z,100852.89
2019-03-18T15:09:44.676Z,100839.58
2019-03-18T15:12:16.844Z,100838.09
2019-03-18T15:14:47.343Z,100826.99
2019-03-18T15:17:18.338Z,100843.34
2019-03-18T15:19:49.904Z,100842.72
2019-03-18T15:22:20.820Z,100842.23
2019-03-18T15:24:52.943Z,100854.47
2019-03-18T15:27:26.778Z,100849.27
2019-03-18T15:29:57.636Z,100852.56
2019-03-18T15:32:27.660Z,100852.43
2019-03-18T15:34:59.039Z,100856.05
2019-03-18T15:37:30.442Z,100855.38
2019-03-18T15:40:00.726Z,100853.44
2019-03-18T15:42:31.437Z,100860.56
2019-03-18T15:45:03.453Z,100859.21
2019-03-18T15:47:35.787Z,100874.33
2019-03-18T15:50:12.881Z,100871.77
2019-03-18T15:52:42.283Z,100903.86
2019-03-18T15:55:13.562Z,100923.75
2019-03-18T15:57:47.796Z,100935.86
2019-03-18T16:00:23.210Z,100941.19
2019-03-18T16:02:53.351Z,100940.03
2019-03-18T16:05:23.867Z,100949.11
2019-03-18T16:07:55.124Z,100943.50
2019-03-18T16:10:25.564Z,100950.41
2019-03-18T16:12:56.278Z,100945.50
2019-03-18T16:15:26.973Z,100946.52
2019-03-18T16:17:58.383Z,100945.20
2019-03-18T16:20:29.042Z,100933.30
2019-03-18T16:22:59.368Z,100914.92
2019-03-18T16:25:30.023Z,100914.05
2019-03-18T16:28:00.319Z,100910.32
2019-03-18T16:30:39.704Z,100917.65
2019-03-18T16:33:17.219Z,100924.58
2019-03-18T16:35:47.849Z,100935.40
2019-03-18T16:38:18.209Z,100946.66
2019-03-18T16:40:48.921Z,100945.41
2019-03-18T16:43:22.510Z,100951.44
2019-03-18T16:45:52.935Z,100958.36
2019-03-18T16:48:28.774Z,100969.63
2019-03-18T16:51:00.399Z,100982.37
2019-03-18T16:53:31.081Z,100996.59
2019-03-18T16:56:05.643Z,100990.87
2019-03-18T16:58:36.140Z,100990.06
2019-03-18T17:01:11.485Z,100977.38
2019-03-18T17:03:41.931Z,100973.64
2019-03-18T17:06:15.468Z,100979.63
2019-03-18T17:08:48.389Z,100986.55
2019-03-18T17:11:18.842Z,100999.27
2019-03-18T17:13:49.642Z,100994.62
2019-03-18T17:16:21.773Z,101000.05
2019-03-18T17:18:52.252Z,100995.66
2019-03-18T17:21:22.624Z,100994.00
2019-03-18T17:23:53.256Z,101001.99
2019-03-18T17:26:23.839Z,101015.36
2019-03-18T17:28:54.212Z,101018.12
2019-03-18T17:31:31.808Z,101018.84
2019-03-18T17:34:03.531Z,101019.13
2019-03-18T17:36:33.911Z,101021.19
2019-03-18T17:39:04.502Z,101021.06
2019-03-18T17:41:34.813Z,101019.59
2019-03-18T17:44:07.711Z,101032.41
2019-03-18T17:46:40.310Z,101041.86
2019-03-18T17:49:10.629Z,101042.45
2019-03-18T17:51:43.699Z,101047.08
2019-03-18T17:54:17.076Z,101050.14
2019-03-18T17:56:47.863Z,101057.00
2019-03-18T17:59:20.392Z,101064.02
2019-03-18T18:01:50.919Z,101068.52
2019-03-18T18:04:25.465Z,101072.23
2019-03-18T18:06:56.302Z,101071.94
2019-03-18T18:09:27.301Z,101077.37
2019-03-18T18:12:00.765Z,101076.22
2019-03-18T18:14:34.229Z,101087.56
2019-03-18T18:17:07.878Z,101083.12
2019-03-18T18:19:38.585Z,101089.53
2019-03-18T18:22:16.211Z,101091.07
2019-03-18T18:24:56.046Z,101090.13
2019-03-18T18:27:26.678Z,101093.40
2019-03-18T18:29:57.114Z,101099.37
2019-03-18T18:32:32.941Z,101105.38
2019-03-18T18:35:04.584Z,101106.62
2019-03-18T18:37:36.093Z,101113.47
2019-03-18T18:40:08.558Z,101117.61
2019-03-18T18:42:40.267Z,101126.59
2019-03-18T18:45:14.240Z,101130.18
2019-03-18T18:47:46.957Z,101140.91
2019-03-18T18:50:17.470Z,101142.52
2019-03-18T18:52:49.629Z,101141.05
2019-03-18T18:55:20.192Z,101144.63
2019-03-18T18:57:50.390Z,101145.39
2019-03-18T19:00:29.300Z,101161.35
2019-03-18T19:03:00.725Z,101170.03
2019-03-18T19:05:36.654Z,101180.30
2019-03-18T19:08:11.210Z,101174.45
2019-03-18T19:10:45.708Z,101180.80
2019-03-18T19:13:22.996Z,101176.58
2019-03-18T19:15:55.968Z,101172.05
2019-03-18T19:18:37.714Z,101176.61
2019-03-18T19:21:01.989Z,101180.97
2019-03-18T19:23:38.031Z,101185.28
2019-03-18T19:26:19.264Z,101190.42
2019-03-18T19:28:52.850Z,101202.94
2019-03-18T19:31:37.777Z,101209.19
2019-03-18T19:34:44.260Z,101213.23
2019-03-18T19:37:17.226Z,101212.07
2019-03-18T19:39:47.661Z,101217.44
2019-03-18T19:43:04.974Z,101219.13
2019-03-18T19:45:36.306Z,101221.59
2019-03-18T19:48:12.285Z,101219.98
2019-03-18T19:50:45.378Z,101220.09
2019-03-18T19:53:17.295Z,101226.54
2019-03-18T19:55:52.734Z,101225.88
2019-03-18T19:58:22.804Z,101222.35
2019-03-18T20:00:53.921Z,101228.53
2019-03-18T20:03:28.318Z,101222.89
2019-03-18T20:05:58.960Z,101226.66
2019-03-18T20:08:38.995Z,101229.38
2019-03-18T20:14:44.961Z,101239.03
2019-03-18T20:17:16.219Z,101235.70
2019-03-18T20:19:46.852Z,101238.13
2019-03-18T20:23:05.247Z,101234.62
2019-03-18T20:25:51.128Z,101235.63
2019-03-18T20:28:25.179Z,101241.39
2019-03-18T20:30:59.592Z,101239.92
2019-03-18T20:33:29.878Z,101237.39
2019-03-18T20:36:01.064Z,101239.51
2019-03-18T20:38:39.550Z,101244.17
2019-03-18T20:41:10.726Z,101237.77
2019-03-18T20:43:41.927Z,101250.80
2019-03-18T20:46:12.898Z,101247.45
2019-03-18T20:49:30.286Z,101244.59
2019-03-18T20:52:00.915Z,101245.21
2019-03-18T20:54:34.527Z,101246.63
2019-03-18T20:57:05.851Z,101258.97
2019-03-18T20:59:39.215Z,101260.20
2019-03-18T21:02:13.033Z,101259.34
2019-03-18T21:04:43.920Z,101265.14
2019-03-18T21:07:17.059Z,101264.58
2019-03-18T21:09:50.472Z,101266.84
2019-03-18T21:12:22.755Z,101267.17
2019-03-18T21:14:54.386Z,101268.70
2019-03-18T21:17:37.821Z,101264.42
2019-03-18T21:20:12.069Z,101269.66
2019-03-18T21:22:44.209Z,101274.34
2019-03-18T21:25:20.986Z,101279.34
2019-03-18T21:27:51.253Z,101279.83
2019-03-18T21:30:22.081Z,101275.38
2019-03-18T21:32:52.793Z,101270.80
2019-03-18T21:35:23.566Z,101271.58
2019-03-18T21:37:55.504Z,101278.01
2019-03-18T21:40:25.630Z,101290.41
2019-03-18T21:42:55.639Z,101292.77
2019-03-18T21:45:26.883Z,101297.87
2019-03-18T21:47:57.500Z,101295.34
2019-03-18T21:50:27.528Z,101293.73
2019-03-18T21:52:57.981Z,101292.27
2019-03-18T21:55:28.299Z,101297.13
2019-03-18T21:57:58.842Z,101294.67
2019-03-18T22:00:29.238Z,101300.05
2019-03-18T22:02:59.713Z,101296.89
2019-03-18T22:05:29.434Z,101306.33
2019-03-18T22:07:58.990Z,101297.93
2019-03-18T22:10:32.962Z,101298.93
2019-03-18T22:13:05.452Z,101297.16
2019-03-18T22:15:35.058Z,101299.33
2019-03-18T22:18:08.022Z,101299.95
2019-03-18T22:20:37.866Z,101313.20
2019-03-18T22:23:07.862Z,101310.80
2019-03-18T22:25:37.918Z,101314.27
2019-03-18T22:28:07.647Z,101312.95
2019-03-18T22:30:37.477Z,101322.62
2019-03-18T22:33:07.505Z,101316.16
2019-03-18T22:35:37.438Z,101319.82
2019-03-18T22:38:07.354Z,101327.55
2019-03-18T22:40:37.889Z,101315.69
2019-03-18T22:43:07.534Z,101311.12
2019-03-18T22:45:38.203Z,101312.28
2019-03-18T22:48:10.434Z,101318.25
2019-03-18T22:50:40.480Z,101315.57
2019-03-18T22:53:10.156Z,101318.49
2019-03-18T22:55:39.838Z,101315.81
2019-03-18T22:58:10.134Z,101316.56
2019-03-18T23:01:06.215Z,101318.22
2019-03-18T23:03:36.745Z,101315.16
2019-03-18T23:06:24.900Z,101318.16
2019-03-18T23:08:58.476Z,101323.12
2019-03-18T23:11:30.100Z,101327.73
2019-03-18T23:14:00.819Z,101322.89
2019-03-18T23:16:35.924Z,101323.00
2019-03-18T23:19:08.323Z,101330.43
2019-03-18T23:21:38.561Z,101336.61
2019-03-18T23:24:08.490Z,101349.46
2019-03-18T23:26:38.073Z,101339.09
2019-03-18T23:29:08.189Z,101333.78
2019-03-18T23:31:37.902Z,101333.09
2019-03-18T23:34:07.419Z,101332.59
2019-03-18T23:36:37.124Z,101338.87
2019-03-18T23:39:09.785Z,101344.44
2019-03-18T23:41:39.787Z,101340.61
2019-03-18T23:44:09.359Z,101340.91
2019-03-18T23:46:39.627Z,101340.91
2019-03-18T23:49:09.680Z,101345.15
2019-03-18T23:51:39.532Z,101348.08
2019-03-18T23:54:10.355Z,101340.86
2019-03-18T23:56:40.070Z,101339.30
2019-03-18T23:59:09.617Z,101336.59
